Glenrothes, United Kingdom

2:30 AM BST on September 16, 2014 (GMT +0100)
Kingdom Bikers Fife | Change Station
CLOSE
Current Station
Personal Weather Station
Location: Glenrothes, FIFE
Elevation: 341 ft
Nearby Weather Stations

Elev 341 ft 56.21 °N, 3.16 °W | Updated 11 seconds ago

Fog
Fog
56.3 °F
Feels Like 56.3 °F
N
0.0
Wind Variable Wind from SE
Gusts 0.0 mph

Today
High -- | Low -- °F
--% Chance of Precip.
Yesterday
High -- | Low -- °F
Precip. -- in
6:45 AM 7:28 PM
Waning Gibbous, 50% visible
Pressure 30.06 in
Visibility 0.6 miles
Clouds Overcast 100 ft
Dew Point 55 °F
Humidity 94%
Rainfall 0.00 in
Snow Depth Not available.
UV 0 out of 12
Pollen Not available.
Air Quality Not available.
Flu Activity Not available.
METAR EGPH 160120Z 04004KT 0900 R06/P1500 FG OVC001 13/13 Q1018

More Conditions Fewer Conditions

Pressure 30.06 in
Visibility 0.6 miles
Clouds Overcast 100 ft
Dew Point 55 °F
Humidity 94%
Rainfall 0.00 in
Snow Depth Not available.
UV 0 out of 12
Pollen Not available.
Air Quality Not available.
Flu Activity Not available.
METAR EGPH 160120Z 04004KT 0900 R06/P1500 FG OVC001 13/13 Q1018

More Conditions Fewer Conditions

10-Day Weather Forecast

Almanac

Astronomy

Sep. 16, 2014 Rise Set
Actual Time 6:45 AM BST 7:28 PM BST
Civil Twilight 6:07 AM BST 8:05 PM BST
Nautical Twilight 5:22 AM BST 8:51 PM BST
Astronomical Twilight 4:32 AM BST 9:40 PM BST
Moon 11:47 PM BST 3:28 PM BST
Length of Visible Light 13h 57m
Length of Day
12h 42m
Tomorrow will be 4m 38s shorter.
Waning Gibbous, 50% of the Moon is Illuminated
Sep 15
Waning Gibbous
Sep 15
Last Quarter
Sep 24
New
Oct 1
First Quarter
Oct 8
Full

Yesterday's Extremes

Country Highs Country Lows

Community

WunderPhotos

Upload Photos

1,753,643 photos uploaded!

WunderBlogs® & News

Nearby

Snow Depth

Not available.

Earthquake Activity

City Distance Mag. Time & Date
No recent earthquake activity has been reported nearby.
Minimum magnitude displayed is 2.5.

Coastal Water Temperatures

Place Temperature
No Stations Reporting

Nearby Weather Stations